sensor_id;sensor_type;location;lat;lon;timestamp;pressure;altitude;pressure_sealevel;temperature;humidity
43420;BME280;29017;51.514;-0.178;2023-07-20T00:01:00;101195.59;;;20.41;63.38
43420;BME280;29017;51.514;-0.178;2023-07-20T00:03:27;101184.91;;;20.41;63.27
43420;BME280;29017;51.514;-0.178;2023-07-20T00:06:01;101191.06;;;20.35;63.40
43420;BME280;29017;51.514;-0.178;2023-07-20T00:08:28;101189.84;;;20.31;64.22
43420;BME280;29017;51.514;-0.178;2023-07-20T00:10:55;101197.22;;;20.29;64.51
43420;BME280;29017;51.514;-0.178;2023-07-20T00:13:31;101193.31;;;20.25;64.85
43420;BME280;29017;51.514;-0.178;2023-07-20T00:15:58;101185.09;;;20.26;64.91
43420;BME280;29017;51.514;-0.178;2023-07-20T00:18:25;101182.00;;;20.23;65.42
43420;BME280;29017;51.514;-0.178;2023-07-20T00:20:52;101190.44;;;20.20;65.99
43420;BME280;29017;51.514;-0.178;2023-07-20T00:23:19;101185.28;;;20.18;66.20
43420;BME280;29017;51.514;-0.178;2023-07-20T00:25:49;101193.75;;;20.15;66.15
43420;BME280;29017;51.514;-0.178;2023-07-20T00:28:16;101190.03;;;20.16;66.08
43420;BME280;29017;51.514;-0.178;2023-07-20T00:30:43;101191.88;;;20.16;66.33
43420;BME280;29017;51.514;-0.178;2023-07-20T00:33:11;101185.91;;;20.14;66.64
43420;BME280;29017;51.514;-0.178;2023-07-20T00:35:39;101183.66;;;20.11;66.99
43420;BME280;29017;51.514;-0.178;2023-07-20T00:38:06;101186.75;;;20.14;66.95
43420;BME280;29017;51.514;-0.178;2023-07-20T00:40:37;101190.44;;;20.13;67.09
43420;BME280;29017;51.514;-0.178;2023-07-20T00:43:04;101189.22;;;20.09;67.55
43420;BME280;29017;51.514;-0.178;2023-07-20T00:45:33;101183.66;;;20.04;68.39
43420;BME280;29017;51.514;-0.178;2023-07-20T00:48:01;101182.63;;;19.98;68.66
43420;BME280;29017;51.514;-0.178;2023-07-20T00:50:28;101188.16;;;19.97;68.83
43420;BME280;29017;51.514;-0.178;2023-07-20T00:52:56;101185.09;;;19.93;68.94
43420;BME280;29017;51.514;-0.178;2023-07-20T00:55:24;101186.34;;;19.91;69.50
43420;BME280;29017;51.514;-0.178;2023-07-20T00:57:52;101186.53;;;19.89;69.81
43420;BME280;29017;51.514;-0.178;2023-07-20T01:00:19;101183.03;;;19.89;69.90
43420;BME280;29017;51.514;-0.178;2023-07-20T01:02:46;101182.41;;;19.87;70.38
43420;BME280;29017;51.514;-0.178;2023-07-20T01:05:14;101186.94;;;19.80;70.95
43420;BME280;29017;51.514;-0.178;2023-07-20T01:08:15;101182.63;;;19.79;71.25
43420;BME280;29017;51.514;-0.178;2023-07-20T01:10:54;101180.75;;;19.73;71.31
43420;BME280;29017;51.514;-0.178;2023-07-20T01:13:30;101180.97;;;19.71;71.44
43420;BME280;29017;51.514;-0.178;2023-07-20T01:16:00;101176.22;;;19.67;71.76
43420;BME280;29017;51.514;-0.178;2023-07-20T01:18:28;101182.19;;;19.62;72.07
43420;BME280;29017;51.514;-0.178;2023-07-20T01:20:59;101185.69;;;19.62;72.41
43420;BME280;29017;51.514;-0.178;2023-07-20T01:26:25;101182.38;;;19.54;72.17
43420;BME280;29017;51.514;-0.178;2023-07-20T01:31:56;101177.06;;;19.54;71.90
43420;BME280;29017;51.514;-0.178;2023-07-20T01:34:24;101176.41;;;19.52;71.62
43420;BME280;29017;51.514;-0.178;2023-07-20T01:36:53;101176.19;;;19.47;71.68
43420;BME280;29017;51.514;-0.178;2023-07-20T01:39:21;101182.78;;;19.44;71.92
43420;BME280;29017;51.514;-0.178;2023-07-20T01:41:49;101176.59;;;19.44;71.84
43420;BME280;29017;51.514;-0.178;2023-07-20T01:44:16;101174.94;;;19.43;72.13
43420;BME280;29017;51.514;-0.178;2023-07-20T01:46:43;101179.63;;;19.41;71.74
43420;BME280;29017;51.514;-0.178;2023-07-20T01:49:10;101183.38;;;19.40;71.71
43420;BME280;29017;51.514;-0.178;2023-07-20T01:51:37;101179.88;;;19.39;72.10
43420;BME280;29017;51.514;-0.178;2023-07-20T01:54:04;101176.56;;;19.37;71.97
43420;BME280;29017;51.514;-0.178;2023-07-20T01:56:31;101175.94;;;19.35;72.37
43420;BME280;29017;51.514;-0.178;2023-07-20T01:58:58;101173.25;;;19.35;72.59
43420;BME280;29017;51.514;-0.178;2023-07-20T02:01:25;101182.09;;;19.36;71.80
43420;BME280;29017;51.514;-0.178;2023-07-20T02:03:55;101178.00;;;19.33;71.78
43420;BME280;29017;51.514;-0.178;2023-07-20T02:06:22;101171.19;;;19.31;71.54
43420;BME280;29017;51.514;-0.178;2023-07-20T02:08:50;101172.03;;;19.25;71.58
43420;BME280;29017;51.514;-0.178;2023-07-20T02:11:17;101171.41;;;19.22;71.01
43420;BME280;29017;51.514;-0.178;2023-07-20T02:13:44;101177.94;;;19.20;71.45
43420;BME280;29017;51.514;-0.178;2023-07-20T02:16:11;101171.19;;;19.17;70.55
43420;BME280;29017;51.514;-0.178;2023-07-20T02:18:38;101173.84;;;19.17;70.09
43420;BME280;29017;51.514;-0.178;2023-07-20T02:21:06;101165.44;;;19.14;69.71
43420;BME280;29017;51.514;-0.178;2023-07-20T02:23:33;101163.78;;;19.13;69.54
43420;BME280;29017;51.514;-0.178;2023-07-20T02:26:01;101163.56;;;19.08;69.33
43420;BME280;29017;51.514;-0.178;2023-07-20T02:28:28;101160.88;;;19.08;67.88
43420;BME280;29017;51.514;-0.178;2023-07-20T02:30:55;101161.72;;;19.08;68.13
43420;BME280;29017;51.514;-0.178;2023-07-20T02:33:23;101158.81;;;19.03;68.62
43420;BME280;29017;51.514;-0.178;2023-07-20T02:35:50;101161.88;;;19.00;68.40
43420;BME280;29017;51.514;-0.178;2023-07-20T02:38:17;101162.09;;;18.99;68.42
43420;BME280;29017;51.514;-0.178;2023-07-20T02:40:44;101164.34;;;19.02;67.80
43420;BME280;29017;51.514;-0.178;2023-07-20T02:43:11;101167.84;;;19.02;67.58
43420;BME280;29017;51.514;-0.178;2023-07-20T02:45:41;101168.63;;;18.96;67.46
43420;BME280;29017;51.514;-0.178;2023-07-20T02:48:11;101165.34;;;18.94;68.23
43420;BME280;29017;51.514;-0.178;2023-07-20T02:50:37;101163.72;;;18.93;67.84
43420;BME280;29017;51.514;-0.178;2023-07-20T02:53:05;101167.78;;;18.89;67.98
43420;BME280;29017;51.514;-0.178;2023-07-20T02:55:31;101160.38;;;18.85;67.73
43420;BME280;29017;51.514;-0.178;2023-07-20T02:57:58;101176.13;;;18.79;67.59
43420;BME280;29017;51.514;-0.178;2023-07-20T03:00:26;101173.88;;;18.76;67.73
43420;BME280;29017;51.514;-0.178;2023-07-20T03:02:53;101174.06;;;18.75;67.53
43420;BME280;29017;51.514;-0.178;2023-07-20T03:05:23;101170.78;;;18.73;67.72
43420;BME280;29017;51.514;-0.178;2023-07-20T03:07:55;101171.81;;;18.72;67.55
43420;BME280;29017;51.514;-0.178;2023-07-20T03:10:22;101172.63;;;18.72;67.82
43420;BME280;29017;51.514;-0.178;2023-07-20T03:12:49;101167.31;;;18.72;68.18
43420;BME280;29017;51.514;-0.178;2023-07-20T03:15:16;101162.78;;;18.73;67.85
43420;BME280;29017;51.514;-0.178;2023-07-20T03:17:44;101170.56;;;18.74;67.41
43420;BME280;29017;51.514;-0.178;2023-07-20T03:20:11;101172.22;;;18.75;66.91
43420;BME280;29017;51.514;-0.178;2023-07-20T03:22:39;101172.81;;;18.71;66.61
43420;BME280;29017;51.514;-0.178;2023-07-20T03:25:07;101170.16;;;18.71;66.85
43420;BME280;29017;51.514;-0.178;2023-07-20T03:27:34;101169.56;;;18.69;66.80
43420;BME280;29017;51.514;-0.178;2023-07-20T03:30:02;101177.09;;;18.65;66.72
43420;BME280;29017;51.514;-0.178;2023-07-20T03:32:29;101166.66;;;18.64;66.55
43420;BME280;29017;51.514;-0.178;2023-07-20T03:34:56;101170.69;;;18.60;66.83
43420;BME280;29017;51.514;-0.178;2023-07-20T03:37:23;101174.78;;;18.56;66.64
43420;BME280;29017;51.514;-0.178;2023-07-20T03:39:50;101168.84;;;18.54;66.71
43420;BME280;29017;51.514;-0.178;2023-07-20T03:42:17;101174.34;;;18.52;66.83
43420;BME280;29017;51.514;-0.178;2023-07-20T03:44:44;101171.25;;;18.49;66.82
43420;BME280;29017;51.514;-0.178;2023-07-20T03:47:11;101168.13;;;18.45;67.11
43420;BME280;29017;51.514;-0.178;2023-07-20T03:49:39;101164.25;;;18.48;67.40
43420;BME280;29017;51.514;-0.178;2023-07-20T03:52:06;101164.88;;;18.50;67.23
43420;BME280;29017;51.514;-0.178;2023-07-20T03:54:33;101172.25;;;18.48;66.40
43420;BME280;29017;51.514;-0.178;2023-07-20T03:57:00;101170.41;;;18.48;66.57
43420;BME280;29017;51.514;-0.178;2023-07-20T03:59:27;101169.97;;;18.45;66.13
43420;BME280;29017;51.514;-0.178;2023-07-20T04:01:54;101173.69;;;18.44;66.42
43420;BME280;29017;51.514;-0.178;2023-07-20T04:04:22;101169.13;;;18.37;66.69
43420;BME280;29017;51.514;-0.178;2023-07-20T04:06:49;101168.66;;;18.34;66.94
43420;BME280;29017;51.514;-0.178;2023-07-20T04:09:15;101163.56;;;18.32;66.99
43420;BME280;29017;51.514;-0.178;2023-07-20T04:11:43;101167.41;;;18.30;67.17
43420;BME280;29017;51.514;-0.178;2023-07-20T04:14:10;101168.84;;;18.26;66.88
43420;BME280;29017;51.514;-0.178;2023-07-20T04:16:37;101163.66;;;18.18;67.21
43420;BME280;29017;51.514;-0.178;2023-07-20T04:19:04;101162.44;;;18.20;66.94
43420;BME280;29017;51.514;-0.178;2023-07-20T04:21:31;101168.53;;;18.14;67.21
43420;BME280;29017;51.514;-0.178;2023-07-20T04:23:58;101166.28;;;18.11;67.64
43420;BME280;29017;51.514;-0.178;2023-07-20T04:26:25;101156.63;;;18.10;67.44
43420;BME280;29017;51.514;-0.178;2023-07-20T04:28:52;101172.19;;;18.07;67.51
43420;BME280;29017;51.514;-0.178;2023-07-20T04:31:19;101164.78;;;18.02;67.48
43420;BME280;29017;51.514;-0.178;2023-07-20T04:33:46;101175.03;;;18.05;69.15
43420;BME280;29017;51.514;-0.178;2023-07-20T04:36:13;101163.19;;;18.08;68.95
43420;BME280;29017;51.514;-0.178;2023-07-20T04:38:43;101167.03;;;18.05;68.25
43420;BME280;29017;51.514;-0.178;2023-07-20T04:41:10;101170.94;;;18.03;67.92
43420;BME280;29017;51.514;-0.178;2023-07-20T04:43:42;101166.59;;;18.02;67.68
43420;BME280;29017;51.514;-0.178;2023-07-20T04:46:11;101165.13;;;17.99;67.75
43420;BME280;29017;51.514;-0.178;2023-07-20T04:48:39;101166.53;;;17.95;67.84
43420;BME280;29017;51.514;-0.178;2023-07-20T04:51:07;101167.13;;;17.90;68.09
43420;BME280;29017;51.514;-0.178;2023-07-20T04:53:34;101160.53;;;17.86;68.37
43420;BME280;29017;51.514;-0.178;2023-07-20T04:56:01;101168.72;;;17.85;68.39
43420;BME280;29017;51.514;-0.178;2023-07-20T04:58:28;101163.78;;;17.82;68.55
43420;BME280;29017;51.514;-0.178;2023-07-20T05:00:55;101171.94;;;17.80;68.37
43420;BME280;29017;51.514;-0.178;2023-07-20T05:03:22;101167.22;;;17.76;68.41
43420;BME280;29017;51.514;-0.178;2023-07-20T05:05:49;101169.22;;;17.74;68.47
43420;BME280;29017;51.514;-0.178;2023-07-20T05:08:17;101175.78;;;17.71;68.38
43420;BME280;29017;51.514;-0.178;2023-07-20T05:10:44;101173.94;;;17.72;68.53
43420;BME280;29017;51.514;-0.178;2023-07-20T05:13:11;101173.09;;;17.71;68.44
43420;BME280;29017;51.514;-0.178;2023-07-20T05:15:38;101174.13;;;17.70;68.64
43420;BME280;29017;51.514;-0.178;2023-07-20T05:18:05;101173.69;;;17.67;68.38
43420;BME280;29017;51.514;-0.178;2023-07-20T05:20:32;101172.22;;;17.64;68.44
43420;BME280;29017;51.514;-0.178;2023-07-20T05:23:00;101168.94;;;17.62;68.57
43420;BME280;29017;51.514;-0.178;2023-07-20T05:25:28;101174.44;;;17.61;68.67
43420;BME280;29017;51.514;-0.178;2023-07-20T05:27:57;101174.16;;;17.56;68.90
43420;BME280;29017;51.514;-0.178;2023-07-20T05:30:24;101172.94;;;17.58;69.38
43420;BME280;29017;51.514;-0.178;2023-07-20T05:32:51;101174.78;;;17.58;69.09
43420;BME280;29017;51.514;-0.178;2023-07-20T05:35:19;101165.16;;;17.57;69.10
43420;BME280;29017;51.514;-0.178;2023-07-20T05:37:46;101167.28;;;17.61;69.55
43420;BME280;29017;51.514;-0.178;2023-07-20T05:40:16;101170.81;;;17.68;69.52
43420;BME280;29017;51.514;-0.178;2023-07-20T05:42:46;101173.34;;;17.76;69.09
43420;BME280;29017;51.514;-0.178;2023-07-20T05:45:15;101172.13;;;17.79;68.90
43420;BME280;29017;51.514;-0.178;2023-07-20T05:47:42;101177.28;;;17.80;69.26
43420;BME280;29017;51.514;-0.178;2023-07-20T05:50:10;101177.09;;;17.82;68.78
43420;BME280;29017;51.514;-0.178;2023-07-20T05:52:37;101174.44;;;17.82;68.67
43420;BME280;29017;51.514;-0.178;2023-07-20T05:55:06;101175.81;;;17.78;68.84
43420;BME280;29017;51.514;-0.178;2023-07-20T05:57:35;101176.84;;;17.77;68.65
43420;BME280;29017;51.514;-0.178;2023-07-20T06:00:02;101176.03;;;17.76;69.12
43420;BME280;29017;51.514;-0.178;2023-07-20T06:02:30;101178.88;;;17.75;69.09
43420;BME280;29017;51.514;-0.178;2023-07-20T06:04:59;101175.63;;;17.79;68.92
43420;BME280;29017;51.514;-0.178;2023-07-20T06:07:31;101173.97;;;17.78;68.52
43420;BME280;29017;51.514;-0.178;2023-07-20T06:09:58;101175.56;;;17.73;69.18
43420;BME280;29017;51.514;-0.178;2023-07-20T06:12:26;101179.88;;;17.74;70.89
43420;BME280;29017;51.514;-0.178;2023-07-20T06:14:53;101173.72;;;17.73;70.36
43420;BME280;29017;51.514;-0.178;2023-07-20T06:17:28;101181.97;;;17.78;70.52
43420;BME280;29017;51.514;-0.178;2023-07-20T06:19:55;101177.94;;;17.82;70.23
43420;BME280;29017;51.514;-0.178;2023-07-20T06:22:22;101172.84;;;17.87;69.59
43420;BME280;29017;51.514;-0.178;2023-07-20T06:24:49;101176.25;;;18.03;69.54
43420;BME280;29017;51.514;-0.178;2023-07-20T06:27:16;101180.91;;;18.22;69.79
43420;BME280;29017;51.514;-0.178;2023-07-20T06:29:43;101180.63;;;18.45;68.49
43420;BME280;29017;51.514;-0.178;2023-07-20T06:32:10;101182.25;;;18.67;67.31
43420;BME280;29017;51.514;-0.178;2023-07-20T06:34:37;101184.59;;;18.83;66.87
43420;BME280;29017;51.514;-0.178;2023-07-20T06:37:06;101184.41;;;18.91;66.37
43420;BME280;29017;51.514;-0.178;2023-07-20T06:39:33;101191.19;;;18.94;65.39
43420;BME280;29017;51.514;-0.178;2023-07-20T06:42:03;101182.81;;;19.03;64.96
43420;BME280;29017;51.514;-0.178;2023-07-20T06:44:30;101185.31;;;19.11;65.23
43420;BME280;29017;51.514;-0.178;2023-07-20T06:46:57;101189.00;;;19.10;65.57
43420;BME280;29017;51.514;-0.178;2023-07-20T06:49:25;101188.59;;;19.07;65.23
43420;BME280;29017;51.514;-0.178;2023-07-20T06:51:52;101192.47;;;19.04;65.03
43420;BME280;29017;51.514;-0.178;2023-07-20T06:54:20;101191.44;;;19.05;64.58
43420;BME280;29017;51.514;-0.178;2023-07-20T06:56:49;101191.81;;;18.96;64.34
43420;BME280;29017;51.514;-0.178;2023-07-20T06:59:36;101192.41;;;18.91;65.31
43420;BME280;29017;51.514;-0.178;2023-07-20T07:02:07;101193.41;;;18.90;65.49
43420;BME280;29017;51.514;-0.178;2023-07-20T07:04:41;101187.44;;;18.82;65.73
43420;BME280;29017;51.514;-0.178;2023-07-20T07:07:09;101184.13;;;18.79;65.56
43420;BME280;29017;51.514;-0.178;2023-07-20T07:09:36;101197.69;;;18.78;65.83
43420;BME280;29017;51.514;-0.178;2023-07-20T07:12:04;101187.63;;;18.80;65.88
43420;BME280;29017;51.514;-0.178;2023-07-20T07:14:31;101198.09;;;18.82;65.78
43420;BME280;29017;51.514;-0.178;2023-07-20T07:16:59;101190.28;;;18.80;65.91
43420;BME280;29017;51.514;-0.178;2023-07-20T07:19:30;101189.28;;;18.81;65.76
43420;BME280;29017;51.514;-0.178;2023-07-20T07:21:57;101187.25;;;18.83;65.67
43420;BME280;29017;51.514;-0.178;2023-07-20T07:24:26;101191.34;;;18.86;65.57
43420;BME280;29017;51.514;-0.178;2023-07-20T07:26:55;101188.69;;;18.86;66.00
43420;BME280;29017;51.514;-0.178;2023-07-20T07:29:22;101183.81;;;18.89;66.09
43420;BME280;29017;51.514;-0.178;2023-07-20T07:31:49;101180.94;;;18.97;66.67
43420;BME280;29017;51.514;-0.178;2023-07-20T07:34:16;101183.44;;;19.05;65.32
43420;BME280;29017;51.514;-0.178;2023-07-20T07:36:44;101178.53;;;19.09;65.44
43420;BME280;29017;51.514;-0.178;2023-07-20T07:39:11;101177.72;;;19.15;66.64
43420;BME280;29017;51.514;-0.178;2023-07-20T07:41:44;101177.56;;;19.23;64.74
43420;BME280;29017;51.514;-0.178;2023-07-20T07:44:18;101181.88;;;19.31;64.86
43420;BME280;29017;51.514;-0.178;2023-07-20T07:46:45;101178.81;;;19.34;65.29
43420;BME280;29017;51.514;-0.178;2023-07-20T07:49:12;101175.59;;;19.45;63.92
43420;BME280;29017;51.514;-0.178;2023-07-20T07:51:40;101176.41;;;19.52;64.06
43420;BME280;29017;51.514;-0.178;2023-07-20T07:54:07;101167.81;;;19.63;64.54
43420;BME280;29017;51.514;-0.178;2023-07-20T07:56:34;101167.03;;;19.76;63.46
43420;BME280;29017;51.514;-0.178;2023-07-20T07:59:01;101171.09;;;19.91;66.51
43420;BME280;29017;51.514;-0.178;2023-07-20T08:01:29;101167.84;;;19.96;62.88
43420;BME280;29017;51.514;-0.178;2023-07-20T08:03:56;101170.53;;;19.96;62.67
43420;BME280;29017;51.514;-0.178;2023-07-20T08:06:24;101174.81;;;19.97;63.11
43420;BME280;29017;51.514;-0.178;2023-07-20T08:08:52;101180.78;;;19.99;62.39
43420;BME280;29017;51.514;-0.178;2023-07-20T08:11:19;101169.91;;;20.00;61.69
43420;BME280;29017;51.514;-0.178;2023-07-20T08:13:46;101170.72;;;20.01;64.48
43420;BME280;29017;51.514;-0.178;2023-07-20T08:16:13;101168.84;;;20.01;63.96
43420;BME280;29017;51.514;-0.178;2023-07-20T08:18:40;101167.00;;;20.08;63.87
43420;BME280;29017;51.514;-0.178;2023-07-20T08:21:08;101169.66;;;20.22;62.55
43420;BME280;29017;51.514;-0.178;2023-07-20T08:23:35;101178.31;;;20.37;62.86
43420;BME280;29017;51.514;-0.178;2023-07-20T08:26:02;101165.75;;;20.44;63.49
43420;BME280;29017;51.514;-0.178;2023-07-20T08:28:29;101170.47;;;20.42;65.17
43420;BME280;29017;51.514;-0.178;2023-07-20T08:30:56;101163.09;;;20.44;67.53
43420;BME280;29017;51.514;-0.178;2023-07-20T08:33:23;101148.31;;;20.35;70.71
43420;BME280;29017;51.514;-0.178;2023-07-20T08:35:51;101160.75;;;19.36;89.60
43420;BME280;29017;51.514;-0.178;2023-07-20T08:38:18;101158.00;;;18.62;96.77
43420;BME280;29017;51.514;-0.178;2023-07-20T08:40:45;101158.81;;;18.28;100.00
43420;BME280;29017;51.514;-0.178;2023-07-20T08:43:14;101154.50;;;17.99;100.00
43420;BME280;29017;51.514;-0.178;2023-07-20T08:45:46;101154.38;;;17.43;100.00
43420;BME280;29017;51.514;-0.178;2023-07-20T08:48:14;101158.00;;;17.36;100.00
43420;BME280;29017;51.514;-0.178;2023-07-20T08:50:42;101152.16;;;17.26;100.00
43420;BME280;29017;51.514;-0.178;2023-07-20T08:53:10;101154.47;;;17.14;100.00
43420;BME280;29017;51.514;-0.178;2023-07-20T08:55:44;101150.53;;;17.10;100.00
43420;BME280;29017;51.514;-0.178;2023-07-20T08:58:13;101157.75;;;16.80;100.00
43420;BME280;29017;51.514;-0.178;2023-07-20T09:00:42;101152.34;;;16.74;100.00
43420;BME280;29017;51.514;-0.178;2023-07-20T09:03:12;101143.28;;;16.68;100.00
43420;BME280;29017;51.514;-0.178;2023-07-20T09:05:41;101147.13;;;16.65;100.00
43420;BME280;29017;51.514;-0.178;2023-07-20T09:08:08;101156.72;;;16.66;100.00
43420;BME280;29017;51.514;-0.178;2023-07-20T09:10:35;101155.00;;;16.59;100.00
43420;BME280;29017;51.514;-0.178;2023-07-20T09:13:02;101147.34;;;16.56;100.00
43420;BME280;29017;51.514;-0.178;2023-07-20T09:15:29;101153.88;;;16.53;95.81
43420;BME280;29017;51.514;-0.178;2023-07-20T09:18:01;101146.28;;;16.80;92.60
43420;BME280;29017;51.514;-0.178;2023-07-20T09:20:32;101149.56;;;16.96;97.12
43420;BME280;29017;51.514;-0.178;2023-07-20T09:23:04;101151.84;;;16.99;98.62
43420;BME280;29017;51.514;-0.178;2023-07-20T09:25:31;101154.31;;;17.01;93.27
43420;BME280;29017;51.514;-0.178;2023-07-20T09:28:02;101151.47;;;17.02;89.09
43420;BME280;29017;51.514;-0.178;2023-07-20T09:30:30;101151.09;;;17.05;96.79
43420;BME280;29017;51.514;-0.178;2023-07-20T09:32:58;101146.63;;;17.06;100.00
43420;BME280;29017;51.514;-0.178;2023-07-20T09:35:26;101147.78;;;17.03;90.55
43420;BME280;29017;51.514;-0.178;2023-07-20T09:38:06;101141.16;;;17.14;91.99
43420;BME280;29017;51.514;-0.178;2023-07-20T09:40:38;101133.88;;;17.23;94.93
43420;BME280;29017;51.514;-0.178;2023-07-20T09:43:09;101136.00;;;17.48;82.43
43420;BME280;29017;51.514;-0.178;2023-07-20T09:45:40;101130.63;;;17.63;87.66
43420;BME280;29017;51.514;-0.178;2023-07-20T09:48:13;101139.28;;;17.93;79.37
43420;BME280;29017;51.514;-0.178;2023-07-20T09:50:49;101135.72;;;18.07;85.20
43420;BME280;29017;51.514;-0.178;2023-07-20T09:53:17;101132.66;;;18.10;86.00
43420;BME280;29017;51.514;-0.178;2023-07-20T09:55:46;101131.13;;;18.29;84.81
43420;BME280;29017;51.514;-0.178;2023-07-20T09:58:15;101129.16;;;18.44;81.40
43420;BME280;29017;51.514;-0.178;2023-07-20T10:00:44;101132.31;;;18.54;77.32
43420;BME280;29017;51.514;-0.178;2023-07-20T10:03:28;101132.59;;;18.66;74.09
43420;BME280;29017;51.514;-0.178;2023-07-20T10:06:06;101126.44;;;18.65;79.77
43420;BME280;29017;51.514;-0.178;2023-07-20T10:08:38;101124.41;;;18.67;82.16
43420;BME280;29017;51.514;-0.178;2023-07-20T10:11:12;101119.13;;;18.74;83.83
43420;BME280;29017;51.514;-0.178;2023-07-20T10:13:43;101126.34;;;18.87;84.77
43420;BME280;29017;51.514;-0.178;2023-07-20T10:16:26;101130.28;;;18.97;79.45
43420;BME280;29017;51.514;-0.178;2023-07-20T10:19:03;101112.84;;;19.01;79.03
43420;BME280;29017;51.514;-0.178;2023-07-20T10:21:48;101121.09;;;19.13;77.24
43420;BME280;29017;51.514;-0.178;2023-07-20T10:24:25;101111.88;;;19.29;76.94
43420;BME280;29017;51.514;-0.178;2023-07-20T10:26:54;101118.06;;;19.42;75.42
43420;BME280;29017;51.514;-0.178;2023-07-20T10:29:23;101116.25;;;19.62;65.78
43420;BME280;29017;51.514;-0.178;2023-07-20T10:31:51;101106.41;;;19.70;64.71
43420;BME280;29017;51.514;-0.178;2023-07-20T10:34:21;101105.59;;;19.69;67.84
43420;BME280;29017;51.514;-0.178;2023-07-20T10:36:49;101104.78;;;19.75;65.54
43420;BME280;29017;51.514;-0.178;2023-07-20T10:39:26;101104.34;;;19.85;66.28
43420;BME280;29017;51.514;-0.178;2023-07-20T10:42:07;101108.25;;;19.95;62.12
43420;BME280;29017;51.514;-0.178;2023-07-20T10:44:39;101108.84;;;20.04;60.00
43420;BME280;29017;51.514;-0.178;2023-07-20T10:47:10;101110.06;;;20.08;60.00
43420;BME280;29017;51.514;-0.178;2023-07-20T10:49:58;101108.81;;;20.17;59.48
43420;BME280;29017;51.514;-0.178;2023-07-20T10:52:41;101097.34;;;20.10;59.59
43420;BME280;29017;51.514;-0.178;2023-07-20T10:55:16;101099.81;;;20.05;66.04
43420;BME280;29017;51.514;-0.178;2023-07-20T10:58:07;101106.81;;;20.06;69.18
43420;BME280;29017;51.514;-0.178;2023-07-20T11:00:55;101096.06;;;20.13;69.50
43420;BME280;29017;51.514;-0.178;2023-07-20T11:03:30;101097.34;;;20.10;62.04
43420;BME280;29017;51.514;-0.178;2023-07-20T11:09:14;101088.44;;;20.29;64.58
43420;BME280;29017;51.514;-0.178;2023-07-20T11:11:54;101085.97;;;20.41;59.72
43420;BME280;29017;51.514;-0.178;2023-07-20T11:14:30;101087.78;;;20.54;61.59
43420;BME280;29017;51.514;-0.178;2023-07-20T11:17:11;101089.34;;;20.68;58.78
43420;BME280;29017;51.514;-0.178;2023-07-20T11:19:39;101090.78;;;20.77;61.04
43420;BME280;29017;51.514;-0.178;2023-07-20T11:22:12;101090.06;;;20.95;57.00
43420;BME280;29017;51.514;-0.178;2023-07-20T11:24:43;101090.59;;;21.03;57.30
43420;BME280;29017;51.514;-0.178;2023-07-20T11:27:10;101089.09;;;21.20;52.65
43420;BME280;29017;51.514;-0.178;2023-07-20T11:29:37;101082.50;;;21.23;56.86
43420;BME280;29017;51.514;-0.178;2023-07-20T11:32:04;101084.53;;;21.27;58.02
43420;BME280;29017;51.514;-0.178;2023-07-20T11:34:34;101079.56;;;21.31;52.04
43420;BME280;29017;51.514;-0.178;2023-07-20T11:37:02;101079.28;;;21.39;52.19
43420;BME280;29017;51.514;-0.178;2023-07-20T11:39:35;101081.53;;;21.42;52.99
43420;BME280;29017;51.514;-0.178;2023-07-20T11:42:02;101077.66;;;21.38;54.42
43420;BME280;29017;51.514;-0.178;2023-07-20T11:44:29;101074.22;;;21.31;53.98
43420;BME280;29017;51.514;-0.178;2023-07-20T11:49:36;101073.59;;;21.29;52.58
43420;BME280;29017;51.514;-0.178;2023-07-20T11:52:07;101069.91;;;21.23;52.44
43420;BME280;29017;51.514;-0.178;2023-07-20T11:54:35;101072.22;;;21.13;52.06
43420;BME280;29017;51.514;-0.178;2023-07-20T11:57:04;101071.63;;;21.11;48.99
43420;BME280;29017;51.514;-0.178;2023-07-20T11:59:34;101072.88;;;21.15;48.37
43420;BME280;29017;51.514;-0.178;2023-07-20T12:02:02;101067.75;;;21.07;53.24
43420;BME280;29017;51.514;-0.178;2023-07-20T12:04:33;101061.13;;;21.10;51.15
43420;BME280;29017;51.514;-0.178;2023-07-20T12:07:00;101059.91;;;21.12;51.80
43420;BME280;29017;51.514;-0.178;2023-07-20T12:09:27;101059.00;;;21.25;49.03
43420;BME280;29017;51.514;-0.178;2023-07-20T12:12:14;101063.63;;;21.43;49.18
43420;BME280;29017;51.514;-0.178;2023-07-20T12:14:42;101061.19;;;21.59;47.67
43420;BME280;29017;51.514;-0.178;2023-07-20T12:17:09;101057.94;;;21.57;49.92
43420;BME280;29017;51.514;-0.178;2023-07-20T12:19:39;101063.63;;;21.67;49.16
43420;BME280;29017;51.514;-0.178;2023-07-20T12:22:07;101056.63;;;21.66;51.39
43420;BME280;29017;51.514;-0.178;2023-07-20T12:24:34;101054.16;;;21.65;51.03
43420;BME280;29017;51.514;-0.178;2023-07-20T12:27:03;101055.56;;;21.67;51.58
43420;BME280;29017;51.514;-0.178;2023-07-20T12:29:30;101058.88;;;21.88;45.54
43420;BME280;29017;51.514;-0.178;2023-07-20T12:32:03;101061.91;;;21.98;43.56
43420;BME280;29017;51.514;-0.178;2023-07-20T12:34:30;101052.44;;;21.95;44.41
43420;BME280;29017;51.514;-0.178;2023-07-20T12:36:57;101055.38;;;21.87;47.11
43420;BME280;29017;51.514;-0.178;2023-07-20T12:39:24;101041.84;;;21.82;46.09
43420;BME280;29017;51.514;-0.178;2023-07-20T12:41:51;101048.44;;;21.80;45.33
43420;BME280;29017;51.514;-0.178;2023-07-20T12:44:18;101044.19;;;21.72;45.82
43420;BME280;29017;51.514;-0.178;2023-07-20T12:46:45;101044.88;;;21.67;46.83
43420;BME280;29017;51.514;-0.178;2023-07-20T12:49:12;101036.44;;;21.64;47.85
43420;BME280;29017;51.514;-0.178;2023-07-20T12:51:39;101043.22;;;21.66;48.31
43420;BME280;29017;51.514;-0.178;2023-07-20T12:54:06;101032.03;;;21.69;48.31
43420;BME280;29017;51.514;-0.178;2023-07-20T12:56:33;101026.44;;;21.77;48.29
43420;BME280;29017;51.514;-0.178;2023-07-20T12:59:03;101028.97;;;21.91;46.79
43420;BME280;29017;51.514;-0.178;2023-07-20T13:01:32;101025.13;;;22.05;47.59